createdAt,value
2023-05-05T00:00:15.029Z,8.2
2023-05-05T00:01:15.197Z,8.18
2023-05-05T00:02:15.383Z,8.21
2023-05-05T00:03:15.608Z,8.18
2023-05-05T00:04:15.760Z,8.19
2023-05-05T00:05:15.815Z,8.17
2023-05-05T00:06:15.992Z,8.19
2023-05-05T00:07:16.199Z,8.18
2023-05-05T00:08:16.361Z,8.2
2023-05-05T00:09:16.543Z,8.16
2023-05-05T00:10:16.624Z,8.13
2023-05-05T00:11:16.770Z,8.14
2023-05-05T00:12:16.891Z,8.15
2023-05-05T00:13:17.060Z,8.15
2023-05-05T00:14:17.201Z,8.16
2023-05-05T00:15:17.344Z,8.12
2023-05-05T00:16:17.521Z,8.09
2023-05-05T00:17:17.697Z,8.09
2023-05-05T00:18:17.800Z,8.09
2023-05-05T00:19:17.984Z,8.09
2023-05-05T00:20:18.157Z,8.12
2023-05-05T00:21:18.355Z,8.09
2023-05-05T00:22:18.559Z,8.1
2023-05-05T00:23:18.717Z,8.1
2023-05-05T00:24:18.880Z,8.07
2023-05-05T00:25:19.097Z,8.02
2023-05-05T00:26:19.232Z,8.03
2023-05-05T00:27:19.497Z,8.02
2023-05-05T00:28:19.674Z,8
2023-05-05T00:29:19.879Z,7.98
2023-05-05T00:30:20.043Z,7.99
2023-05-05T00:31:20.258Z,8
2023-05-05T00:32:20.497Z,7.98
2023-05-05T00:33:20.617Z,7.96
2023-05-05T00:34:20.809Z,7.96
2023-05-05T00:35:21.009Z,7.96
2023-05-05T00:36:21.267Z,7.95
2023-05-05T00:37:21.558Z,7.95
2023-05-05T00:38:21.785Z,7.91
2023-05-05T00:39:21.935Z,7.9
2023-05-05T00:40:22.145Z,7.92
2023-05-05T00:41:22.440Z,7.88
2023-05-05T00:42:22.636Z,7.87
2023-05-05T00:43:22.925Z,7.89
2023-05-05T00:44:23.138Z,7.84
2023-05-05T00:45:23.365Z,7.87
2023-05-05T00:46:23.644Z,7.88
2023-05-05T00:47:23.807Z,7.87
2023-05-05T00:48:23.941Z,7.89
2023-05-05T00:49:24.177Z,7.86
2023-05-05T00:50:24.298Z,7.83
2023-05-05T00:51:24.397Z,7.83
2023-05-05T00:52:24.545Z,7.84
2023-05-05T00:53:24.726Z,7.84
2023-05-05T00:54:24.885Z,7.85
2023-05-05T00:55:25.010Z,7.81
2023-05-05T00:56:25.164Z,7.78
2023-05-05T00:57:25.330Z,7.79
2023-05-05T00:58:25.458Z,7.79
2023-05-05T00:59:25.684Z,7.81
2023-05-05T01:00:25.805Z,7.78
2023-05-05T01:01:26.094Z,7.77
2023-05-05T01:02:26.336Z,7.77
2023-05-05T01:03:26.510Z,7.77
2023-05-05T01:04:26.577Z,7.74
2023-05-05T01:05:26.732Z,7.72
2023-05-05T01:06:26.951Z,7.71
2023-05-05T01:07:27.137Z,7.71
2023-05-05T01:08:27.314Z,7.7
2023-05-05T01:09:27.445Z,7.71
2023-05-05T01:10:27.836Z,7.71
2023-05-05T01:11:27.777Z,7.72
2023-05-05T01:12:27.910Z,7.71
2023-05-05T01:13:28.108Z,7.67
2023-05-05T01:14:28.288Z,7.65
2023-05-05T01:15:28.428Z,7.62
2023-05-05T01:16:28.655Z,7.63
2023-05-05T01:17:28.876Z,7.61
2023-05-05T01:18:29.019Z,7.61
2023-05-05T01:19:29.184Z,7.61
2023-05-05T01:20:29.319Z,7.63
2023-05-05T01:21:29.620Z,7.64
2023-05-05T01:22:29.819Z,7.65
2023-05-05T01:23:30.001Z,7.65
2023-05-05T01:24:30.209Z,7.65
2023-05-05T01:25:30.486Z,7.65
2023-05-05T01:26:30.712Z,7.64
2023-05-05T01:27:30.910Z,7.58
2023-05-05T01:28:31.189Z,7.54
2023-05-05T01:29:31.385Z,7.56
2023-05-05T01:30:31.605Z,7.57
2023-05-05T01:31:31.830Z,7.58
2023-05-05T01:32:32.014Z,7.57
2023-05-05T01:33:32.172Z,7.59
2023-05-05T01:34:32.504Z,7.56
2023-05-05T01:35:32.649Z,7.56
2023-05-05T01:36:32.849Z,7.51
2023-05-05T01:37:33.132Z,7.53
2023-05-05T01:38:33.332Z,7.5
2023-05-05T01:39:33.648Z,7.46
2023-05-05T01:40:33.828Z,7.47
2023-05-05T01:41:34.010Z,7.48
2023-05-05T01:42:34.172Z,7.42
2023-05-05T01:43:34.383Z,7.43
2023-05-05T01:44:34.696Z,7.43
2023-05-05T01:45:35.042Z,7.42
2023-05-05T01:46:35.230Z,7.42
2023-05-05T01:47:35.485Z,7.42
2023-05-05T01:48:35.676Z,7.4
2023-05-05T01:49:35.969Z,7.41
2023-05-05T01:50:36.191Z,7.41
2023-05-05T01:51:36.387Z,7.4
2023-05-05T01:52:36.619Z,7.37
2023-05-05T01:53:36.946Z,7.38
2023-05-05T01:54:37.167Z,7.38
2023-05-05T01:55:37.506Z,7.35
2023-05-05T01:56:37.750Z,7.33
2023-05-05T01:57:38.053Z,7.33
2023-05-05T01:58:38.270Z,7.33
2023-05-05T01:59:38.550Z,7.32
2023-05-05T02:00:38.688Z,7.32
2023-05-05T02:01:39.154Z,7.33
2023-05-05T02:02:39.560Z,7.31
2023-05-05T02:03:39.739Z,7.31
2023-05-05T02:04:39.956Z,7.28
2023-05-05T02:05:40.314Z,7.24
2023-05-05T02:06:40.749Z,7.23
2023-05-05T02:07:41.165Z,7.22
2023-05-05T02:08:41.330Z,7.23
2023-05-05T02:09:41.591Z,7.23
2023-05-05T02:10:41.867Z,7.22
2023-05-05T02:11:42.165Z,7.22
2023-05-05T02:12:42.463Z,7.23
2023-05-05T02:13:42.762Z,7.26
2023-05-05T02:14:43.018Z,7.25
2023-05-05T02:15:43.480Z,7.21
2023-05-05T02:16:43.644Z,7.21
2023-05-05T02:17:44.065Z,7.21
2023-05-05T02:18:44.259Z,7.16
2023-05-05T02:19:44.561Z,7.15
2023-05-05T02:20:44.906Z,7.17
2023-05-05T02:21:45.262Z,7.14
2023-05-05T02:22:45.480Z,7.16
2023-05-05T02:23:45.855Z,7.17
2023-05-05T02:24:46.079Z,7.17
2023-05-05T02:25:46.462Z,7.17
2023-05-05T02:26:46.772Z,7.12
2023-05-05T02:27:46.978Z,7.12
2023-05-05T02:28:47.215Z,7.12
2023-05-05T02:29:47.459Z,7.12
2023-05-05T02:30:47.729Z,7.12
2023-05-05T02:31:48.208Z,7.12
2023-05-05T02:32:48.397Z,7.12
2023-05-05T02:33:48.650Z,7.12
2023-05-05T02:34:48.854Z,7.1
2023-05-05T02:35:49.154Z,7.11
2023-05-05T02:36:49.438Z,7.16
2023-05-05T02:37:49.660Z,7.16
2023-05-05T02:38:49.979Z,7.14
2023-05-05T02:39:50.187Z,7.15
2023-05-05T02:40:50.514Z,7.15
2023-05-05T02:41:50.750Z,7.2
2023-05-05T02:42:51.030Z,7.2
2023-05-05T02:43:51.261Z,7.21
2023-05-05T02:44:51.538Z,7.18
2023-05-05T02:45:51.835Z,7.21
2023-05-05T02:46:52.272Z,7.22
2023-05-05T02:47:52.501Z,7.22
2023-05-05T02:48:52.780Z,7.22
2023-05-05T02:49:53.069Z,7.22
2023-05-05T02:50:53.487Z,7.25
2023-05-05T02:51:53.823Z,7.25
2023-05-05T02:52:54.211Z,7.25
2023-05-05T02:53:54.494Z,7.26
2023-05-05T02:54:54.813Z,7.26
2023-05-05T02:55:55.280Z,7.26
2023-05-05T02:56:55.571Z,7.26
2023-05-05T02:57:55.878Z,7.23
2023-05-05T02:58:56.310Z,7.25
2023-05-05T02:59:56.665Z,7.25
2023-05-05T03:00:57.069Z,7.21
2023-05-05T03:01:57.626Z,7.19
2023-05-05T03:02:57.779Z,7.2
2023-05-05T03:03:58.035Z,7.17
2023-05-05T03:04:58.226Z,7.19
2023-05-05T03:05:58.561Z,7.2
2023-05-05T03:06:58.958Z,7.21
2023-05-05T03:07:59.333Z,7.21
2023-05-05T03:08:59.653Z,7.21
2023-05-05T03:10:00.133Z,7.19
2023-05-05T03:11:00.394Z,7.19
2023-05-05T03:12:00.765Z,7.19
2023-05-05T03:13:01.273Z,7.19
2023-05-05T03:14:01.603Z,7.18
2023-05-05T03:15:02.161Z,7.19
2023-05-05T03:16:02.590Z,7.22
2023-05-05T03:17:02.911Z,7.18
2023-05-05T03:18:03.225Z,7.18
2023-05-05T03:19:03.528Z,7.19
2023-05-05T03:20:04.074Z,7.21
2023-05-05T03:21:04.362Z,7.19
2023-05-05T03:22:04.646Z,7.2
2023-05-05T03:23:05.013Z,7.15
2023-05-05T03:24:05.520Z,7.12
2023-05-05T03:25:05.933Z,7.11
2023-05-05T03:26:06.268Z,7.1
2023-05-05T03:27:06.940Z,7.1
2023-05-05T03:28:07.278Z,7.12
2023-05-05T03:29:07.592Z,7.11
2023-05-05T03:30:08.259Z,7.11
2023-05-05T03:31:08.271Z,7.13
2023-05-05T03:32:08.704Z,7.08
2023-05-05T03:33:09.191Z,7.06
2023-05-05T03:34:09.288Z,7.07
2023-05-05T03:35:09.542Z,7.02
2023-05-05T03:36:09.747Z,7
2023-05-05T03:37:10.151Z,6.97
2023-05-05T03:38:10.677Z,6.97
2023-05-05T03:39:10.908Z,6.98
2023-05-05T03:40:11.140Z,6.97
2023-05-05T03:41:11.397Z,6.92
2023-05-05T03:42:11.800Z,6.93
2023-05-05T03:43:12.024Z,6.93
2023-05-05T03:44:12.187Z,6.92
2023-05-05T03:45:12.509Z,6.92
2023-05-05T03:46:12.829Z,6.9
2023-05-05T03:47:12.974Z,6.83
2023-05-05T03:48:13.408Z,6.84
2023-05-05T03:49:13.722Z,6.85
2023-05-05T03:50:14.049Z,6.85
2023-05-05T03:51:14.393Z,6.82
2023-05-05T03:52:15.153Z,6.83
2023-05-05T03:53:15.094Z,6.83
2023-05-05T03:54:15.429Z,6.83
2023-05-05T03:55:15.778Z,6.82
2023-05-05T03:56:16.077Z,6.84
2023-05-05T03:57:16.470Z,6.84
2023-05-05T03:58:17.011Z,6.8
2023-05-05T03:59:17.367Z,6.79
2023-05-05T04:00:17.718Z,6.79
2023-05-05T04:01:18.096Z,6.79
2023-05-05T04:02:18.885Z,6.79
2023-05-05T04:03:19.058Z,6.81
2023-05-05T04:04:19.331Z,6.81
2023-05-05T04:05:19.532Z,6.79
2023-05-05T04:06:20.097Z,6.81
2023-05-05T04:07:20.480Z,6.81
2023-05-05T04:08:21.133Z,6.82
2023-05-05T04:09:21.490Z,6.75
2023-05-05T04:10:22.017Z,6.75
2023-05-05T04:11:22.421Z,6.75
2023-05-05T04:12:22.785Z,6.74
2023-05-05T04:13:23.231Z,6.74
2023-05-05T04:14:23.542Z,6.74
2023-05-05T04:15:24.063Z,6.75
2023-05-05T04:16:24.384Z,6.75
2023-05-05T04:17:24.661Z,6.76
2023-05-05T04:18:25.156Z,6.75
2023-05-05T04:19:25.539Z,6.77
2023-05-05T04:20:26.049Z,6.79
2023-05-05T04:21:26.344Z,6.82
2023-05-05T04:22:26.741Z,6.82
2023-05-05T04:23:27.438Z,6.81
2023-05-05T04:24:27.940Z,6.79
2023-05-05T04:25:28.281Z,6.81
2023-05-05T04:26:28.771Z,6.81
2023-05-05T04:27:29.139Z,6.81
2023-05-05T04:28:29.458Z,6.81
2023-05-05T04:29:29.993Z,6.81
2023-05-05T04:30:30.614Z,6.9
2023-05-05T04:31:30.970Z,6.86
2023-05-05T04:32:31.521Z,6.85
2023-05-05T04:33:32.000Z,6.89
2023-05-05T04:34:32.473Z,6.88
2023-05-05T04:35:33.007Z,6.86
2023-05-05T04:36:33.587Z,6.85
2023-05-05T04:37:33.931Z,6.85
2023-05-05T04:38:34.653Z,6.9
2023-05-05T04:39:35.192Z,6.91
2023-05-05T04:40:35.557Z,6.91
2023-05-05T04:41:36.185Z,6.94
2023-05-05T04:42:36.565Z,6.91
2023-05-05T04:43:36.836Z,6.92
2023-05-05T04:44:37.410Z,6.95
2023-05-05T04:45:37.793Z,6.95
2023-05-05T04:46:38.441Z,6.95
2023-05-05T04:47:38.922Z,6.95
2023-05-05T04:48:39.519Z,6.98
2023-05-05T04:49:40.047Z,7
2023-05-05T04:50:40.682Z,6.96
2023-05-05T04:51:41.235Z,7
2023-05-05T04:52:41.682Z,6.99
2023-05-05T04:53:42.099Z,7.04
2023-05-05T04:54:42.741Z,7.03
2023-05-05T04:55:43.457Z,7.06
2023-05-05T04:56:43.893Z,7.08
2023-05-05T04:57:44.510Z,7.05
2023-05-05T04:58:44.985Z,7.09
2023-05-05T04:59:45.467Z,7.12
2023-05-05T05:00:45.901Z,7.11
2023-05-05T05:01:46.676Z,7.13
2023-05-05T05:02:47.188Z,7.13
2023-05-05T05:03:47.812Z,7.15
2023-05-05T05:04:48.335Z,7.13
2023-05-05T05:05:48.796Z,7.18
2023-05-05T05:06:49.321Z,7.18
2023-05-05T05:07:49.980Z,7.2
2023-05-05T05:08:50.496Z,7.24
2023-05-05T05:09:50.976Z,7.22
2023-05-05T05:10:51.526Z,7.29
2023-05-05T05:11:51.969Z,7.29
2023-05-05T05:12:52.744Z,7.33
2023-05-05T05:13:53.295Z,7.32
2023-05-05T05:14:53.776Z,7.35
2023-05-05T05:15:54.546Z,7.35
2023-05-05T05:16:55.343Z,7.4
2023-05-05T05:17:55.953Z,7.42
2023-05-05T05:18:56.712Z,7.41
2023-05-05T05:19:57.439Z,7.47
2023-05-05T05:20:58.192Z,7.48
2023-05-05T05:21:58.750Z,7.5
2023-05-05T05:22:59.501Z,7.55
2023-05-05T05:24:00.407Z,7.59
2023-05-05T05:25:01.192Z,7.6
2023-05-05T05:26:01.769Z,7.69
2023-05-05T05:27:02.554Z,7.66
2023-05-05T05:28:10.131Z,7.62
2023-05-05T05:29:03.945Z,7.64
2023-05-05T05:30:04.620Z,7.64
2023-05-05T05:31:04.712Z,7.68
2023-05-05T05:32:05.549Z,7.75
2023-05-05T05:33:06.303Z,7.73
2023-05-05T05:34:07.067Z,7.74
2023-05-05T05:35:07.814Z,7.76
2023-05-05T05:36:08.418Z,7.74
2023-05-05T05:37:09.205Z,7.77
2023-05-05T05:38:09.947Z,7.8
2023-05-05T05:39:10.751Z,7.84
2023-05-05T05:40:11.542Z,7.87
2023-05-05T05:41:12.202Z,7.87
2023-05-05T05:42:12.935Z,7.82
2023-05-05T05:43:13.570Z,7.85
2023-05-05T05:44:14.399Z,7.94
2023-05-05T05:45:15.188Z,7.95
2023-05-05T05:46:15.985Z,8
2023-05-05T05:47:16.799Z,7.95
2023-05-05T05:48:17.433Z,8.05
2023-05-05T05:49:18.282Z,7.96
2023-05-05T05:50:18.910Z,7.99
2023-05-05T05:51:19.699Z,7.98
2023-05-05T05:52:20.416Z,8.04
2023-05-05T05:53:21.015Z,7.98
2023-05-05T05:54:21.586Z,8.04
2023-05-05T05:55:21.909Z,8.06
2023-05-05T05:56:22.467Z,8.08
2023-05-05T05:57:22.845Z,8.07
2023-05-05T05:58:23.658Z,8.06
2023-05-05T05:59:24.313Z,8.06
2023-05-05T06:00:25.220Z,8.07
2023-05-05T06:01:26.116Z,8.06
2023-05-05T06:02:26.822Z,8.11
2023-05-05T06:03:27.379Z,8.09
2023-05-05T06:04:28.239Z,8.08
2023-05-05T06:05:28.970Z,8.18
2023-05-05T06:06:29.372Z,8.22
2023-05-05T06:07:29.945Z,8.24
2023-05-05T06:08:30.681Z,8.21
2023-05-05T06:09:31.320Z,8.29
2023-05-05T06:10:32.161Z,8.34
2023-05-05T06:11:32.293Z,8.36
2023-05-05T06:12:32.825Z,8.46
2023-05-05T06:13:33.298Z,8.54
2023-05-05T06:14:33.786Z,8.53
2023-05-05T06:15:34.277Z,8.6
2023-05-05T06:16:35.037Z,8.54
2023-05-05T06:17:35.424Z,8.5
2023-05-05T06:18:35.815Z,8.59
2023-05-05T06:19:36.436Z,8.63
2023-05-05T06:20:37.490Z,8.61
2023-05-05T06:21:37.937Z,8.58
2023-05-05T06:22:38.593Z,8.63
2023-05-05T06:23:39.119Z,8.65
2023-05-05T06:24:39.797Z,8.6
2023-05-05T06:25:40.388Z,8.56
2023-05-05T06:26:41.208Z,8.56
2023-05-05T06:27:42.014Z,8.55
2023-05-05T06:28:42.611Z,8.55
2023-05-05T06:29:43.284Z,8.58
2023-05-05T06:30:44.042Z,8.6
2023-05-05T06:31:44.791Z,8.69
2023-05-05T06:32:45.396Z,8.6
2023-05-05T06:33:46.297Z,8.71
2023-05-05T06:34:47.026Z,8.8
2023-05-05T06:35:47.861Z,8.75
2023-05-05T06:36:48.610Z,8.76
2023-05-05T06:37:49.114Z,8.84
2023-05-05T06:38:49.699Z,8.86
2023-05-05T06:39:50.446Z,8.95
2023-05-05T06:40:51.145Z,8.88
2023-05-05T06:41:51.704Z,8.84
2023-05-05T06:42:52.562Z,8.88
2023-05-05T06:43:53.443Z,8.9
2023-05-05T06:44:54.317Z,8.87
2023-05-05T06:45:55.055Z,8.94
2023-05-05T06:46:55.972Z,8.96
2023-05-05T06:47:56.688Z,8.94
2023-05-05T06:48:57.464Z,8.93
2023-05-05T06:49:58.325Z,8.93
2023-05-05T06:50:59.035Z,8.86
2023-05-05T06:51:59.145Z,8.94
2023-05-05T06:52:59.903Z,8.99
2023-05-05T06:54:00.714Z,8.93
2023-05-05T06:55:01.641Z,9
2023-05-05T06:56:02.607Z,9.03
2023-05-05T06:57:03.275Z,9.01
2023-05-05T06:58:04.158Z,9.01
2023-05-05T06:59:04.917Z,9.1
2023-05-05T07:00:06.065Z,9.09
2023-05-05T07:01:06.803Z,9
2023-05-05T07:02:07.787Z,9.01
2023-05-05T07:03:08.710Z,8.98
2023-05-05T07:04:09.463Z,8.97
2023-05-05T07:05:09.456Z,8.96
2023-05-05T07:06:10.202Z,9.02
2023-05-05T07:07:10.993Z,9.07
2023-05-05T07:08:11.895Z,9.05
2023-05-05T07:09:12.013Z,9.11
2023-05-05T07:10:12.873Z,9.09
2023-05-05T07:11:13.685Z,9.07
2023-05-05T07:12:14.650Z,9.2
2023-05-05T07:13:15.654Z,9.26
2023-05-05T07:14:15.716Z,9.27
2023-05-05T07:15:26.801Z,9.2
2023-05-05T07:16:16.666Z,9.2
2023-05-05T07:17:16.837Z,9.21
2023-05-05T07:18:17.723Z,9.27
2023-05-05T07:19:18.632Z,9.3
2023-05-05T07:20:18.818Z,9.32
2023-05-05T07:21:19.645Z,9.22
2023-05-05T07:22:19.922Z,9.22
2023-05-05T07:23:20.887Z,9.19
2023-05-05T07:24:21.890Z,9.26
2023-05-05T07:25:22.286Z,9.22
2023-05-05T07:26:22.344Z,9.33
2023-05-05T07:27:23.309Z,9.39
2023-05-05T07:28:24.293Z,9.4
2023-05-05T07:29:25.215Z,9.49
2023-05-05T07:30:25.659Z,9.5
2023-05-05T07:31:25.392Z,9.47
2023-05-05T07:32:25.591Z,9.49
2023-05-05T07:33:26.454Z,9.55
2023-05-05T07:34:26.696Z,9.67
2023-05-05T07:35:26.870Z,9.71
2023-05-05T07:36:27.939Z,9.79
2023-05-05T07:37:28.200Z,9.69
2023-05-05T07:38:28.294Z,9.73
2023-05-05T07:39:29.241Z,9.76
2023-05-05T07:40:29.340Z,9.76
2023-05-05T07:41:29.475Z,9.73
2023-05-05T07:42:29.550Z,9.79
2023-05-05T07:43:29.681Z,9.72
2023-05-05T07:44:29.798Z,9.74
2023-05-05T07:45:30.142Z,9.88
2023-05-05T07:46:31.251Z,9.91
2023-05-05T07:47:31.492Z,9.78
2023-05-05T07:48:32.690Z,9.91
2023-05-05T07:49:33.579Z,9.98
2023-05-05T07:50:33.601Z,10.08
2023-05-05T07:51:34.936Z,9.98
2023-05-05T07:52:45.130Z,10.05
2023-05-05T07:53:34.010Z,10.03
2023-05-05T07:54:34.008Z,10.01
2023-05-05T07:55:35.370Z,10.01
2023-05-05T07:56:34.572Z,10.01
2023-05-05T07:57:35.080Z,9.98
2023-05-05T07:58:35.152Z,10.06
2023-05-05T07:59:35.412Z,9.94
2023-05-05T08:00:35.498Z,10.04
2023-05-05T08:01:35.902Z,9.93
2023-05-05T08:02:36.173Z,10.06
2023-05-05T08:03:36.841Z,10.06
2023-05-05T08:04:36.961Z,10.1
2023-05-05T08:05:37.186Z,10.13
2023-05-05T08:06:37.381Z,10.22
2023-05-05T08:07:37.665Z,10.13
2023-05-05T08:08:37.698Z,10.2
2023-05-05T08:09:37.842Z,10.22
2023-05-05T08:10:38.202Z,10.22
2023-05-05T08:11:38.303Z,10.21
2023-05-05T08:12:38.786Z,10.28
2023-05-05T08:13:39.210Z,10.27
2023-05-05T08:14:39.456Z,10.32
2023-05-05T08:15:39.542Z,10.32
2023-05-05T08:16:39.845Z,10.32
2023-05-05T08:17:39.960Z,10.37
2023-05-05T08:18:40.129Z,10.39
2023-05-05T08:19:40.351Z,10.32
2023-05-05T08:20:40.438Z,10.32
2023-05-05T08:21:40.556Z,10.37
2023-05-05T08:22:40.871Z,10.47
2023-05-05T08:23:41.133Z,10.61
2023-05-05T08:24:41.455Z,10.6
2023-05-05T08:25:41.720Z,10.51
2023-05-05T08:26:41.793Z,10.53
2023-05-05T08:27:41.951Z,10.47
2023-05-05T08:28:42.344Z,10.45
2023-05-05T08:29:42.494Z,10.61
2023-05-05T08:30:43.453Z,10.59
2023-05-05T08:31:43.808Z,10.68
2023-05-05T08:32:44.080Z,10.76
2023-05-05T08:33:44.371Z,10.69
2023-05-05T08:34:44.501Z,10.68
2023-05-05T08:35:44.646Z,10.74
2023-05-05T08:36:44.714Z,10.75
2023-05-05T08:37:45.290Z,10.75
2023-05-05T08:38:45.608Z,10.72
2023-05-05T08:39:45.580Z,10.68
2023-05-05T08:40:45.997Z,10.7
2023-05-05T08:41:46.480Z,10.81
2023-05-05T08:42:46.648Z,10.92
2023-05-05T08:43:46.904Z,10.84
2023-05-05T08:44:47.666Z,10.79
2023-05-05T08:45:47.989Z,10.84
2023-05-05T08:46:48.557Z,10.86
2023-05-05T08:47:48.751Z,10.89
2023-05-05T08:48:48.942Z,10.95
2023-05-05T08:49:50.046Z,10.91
2023-05-05T08:50:50.226Z,10.98
2023-05-05T08:51:50.798Z,11
2023-05-05T08:52:51.609Z,11.01
2023-05-05T08:53:51.741Z,11.02
2023-05-05T08:54:52.044Z,11.08
2023-05-05T08:55:52.743Z,11.04
2023-05-05T08:56:52.826Z,11.19
2023-05-05T08:57:53.366Z,11.16
2023-05-05T08:58:53.869Z,11.27
2023-05-05T08:59:54.424Z,11.23
2023-05-05T09:00:54.969Z,11.13
2023-05-05T09:01:55.901Z,11.03
2023-05-05T09:02:56.410Z,11.25
2023-05-05T09:03:56.477Z,11.35
2023-05-05T09:04:56.995Z,11.31
2023-05-05T09:05:57.530Z,11.31
2023-05-05T09:06:58.334Z,11.38
2023-05-05T09:07:58.745Z,11.38
2023-05-05T09:08:59.778Z,11.29
2023-05-05T09:09:59.669Z,11.37
2023-05-05T09:10:59.865Z,11.45
2023-05-05T09:12:00.489Z,11.37
2023-05-05T09:13:01.825Z,11.41
2023-05-05T09:14:02.100Z,11.54
2023-05-05T09:15:02.869Z,11.56
2023-05-05T09:16:03.281Z,11.47
2023-05-05T09:17:03.882Z,11.54
2023-05-05T09:18:04.100Z,11.64
2023-05-05T09:19:04.611Z,11.65
2023-05-05T09:20:05.324Z,11.75
2023-05-05T09:21:05.978Z,11.74
2023-05-05T09:22:06.153Z,11.86
2023-05-05T09:23:06.837Z,11.79
2023-05-05T09:24:08.472Z,11.93
2023-05-05T09:25:08.118Z,11.98
2023-05-05T09:26:08.016Z,11.97
2023-05-05T09:27:08.727Z,12.09
2023-05-05T09:28:09.111Z,11.92
2023-05-05T09:29:09.676Z,12.16
2023-05-05T09:30:10.296Z,12
2023-05-05T09:31:11.662Z,12.14
2023-05-05T09:32:11.978Z,12.02
2023-05-05T09:33:12.713Z,12.01
2023-05-05T09:34:13.582Z,11.97
2023-05-05T09:35:14.360Z,11.95
2023-05-05T09:36:15.136Z,12.24
2023-05-05T09:37:16.210Z,12.11
2023-05-05T09:38:16.952Z,12.17
2023-05-05T09:39:17.513Z,12.17
2023-05-05T09:40:18.222Z,12.13
2023-05-05T09:41:18.217Z,12.06
2023-05-05T09:42:18.465Z,12.31
2023-05-05T09:43:19.798Z,12.19
2023-05-05T09:44:19.617Z,12.34
2023-05-05T09:45:20.203Z,12.34
2023-05-05T09:46:20.790Z,12.41
2023-05-05T09:47:29.547Z,12.29
2023-05-05T09:48:21.723Z,12.45
2023-05-05T09:49:22.492Z,12.52
2023-05-05T09:50:23.445Z,12.62
2023-05-05T09:51:24.129Z,12.66
2023-05-05T09:52:25.080Z,12.54
2023-05-05T09:53:25.589Z,12.55
2023-05-05T09:54:26.329Z,12.51
2023-05-05T09:55:27.286Z,12.51
2023-05-05T09:56:27.823Z,12.51
2023-05-05T09:57:28.351Z,12.56
2023-05-05T09:58:29.261Z,12.68
2023-05-05T09:59:30.050Z,12.52
2023-05-05T10:00:30.646Z,12.57
2023-05-05T10:01:31.691Z,12.53
2023-05-05T10:02:32.534Z,12.52
2023-05-05T10:03:32.475Z,12.49
2023-05-05T10:04:33.245Z,12.62
2023-05-05T10:05:33.445Z,12.72
2023-05-05T10:06:34.171Z,12.7
2023-05-05T10:07:35.027Z,12.74
2023-05-05T10:08:35.568Z,12.66
2023-05-05T10:09:36.478Z,12.68
2023-05-05T10:10:37.313Z,12.66
2023-05-05T10:11:38.026Z,12.68
2023-05-05T10:12:38.930Z,12.67
2023-05-05T10:13:39.262Z,12.78
2023-05-05T10:14:40.123Z,12.92
2023-05-05T10:15:41.080Z,12.84
2023-05-05T10:16:41.963Z,12.97
2023-05-05T10:17:53.888Z,13.08
2023-05-05T10:18:42.966Z,13.09
2023-05-05T10:19:42.931Z,12.94
2023-05-05T10:20:43.665Z,13.05
2023-05-05T10:21:44.401Z,13.14
2023-05-05T10:22:44.927Z,13.19
2023-05-05T10:23:45.718Z,13.03
2023-05-05T10:24:46.635Z,13.1
2023-05-05T10:25:46.990Z,13.22
2023-05-05T10:26:47.784Z,13.34
2023-05-05T10:27:48.367Z,13.47
2023-05-05T10:28:49.152Z,13.43
2023-05-05T10:29:49.682Z,13.37
2023-05-05T10:30:50.501Z,13.37
2023-05-05T10:31:52.058Z,13.46
2023-05-05T10:33:03.475Z,13.48
2023-05-05T10:33:53.197Z,13.59
2023-05-05T10:34:53.920Z,13.55
2023-05-05T10:35:54.549Z,13.74
2023-05-05T10:36:54.659Z,13.81
2023-05-05T10:37:55.354Z,13.76
2023-05-05T10:38:55.451Z,13.93
2023-05-05T10:39:55.723Z,13.95
2023-05-05T10:40:56.034Z,13.94
2023-05-05T10:41:56.801Z,14.06
2023-05-05T10:42:57.073Z,14.1
2023-05-05T10:43:57.885Z,14.15
2023-05-05T10:44:58.901Z,14.28
2023-05-05T10:45:59.852Z,14.23
2023-05-05T10:47:00.553Z,14.33
2023-05-05T10:48:00.802Z,14.52
2023-05-05T10:49:01.716Z,14.47
2023-05-05T10:50:02.337Z,14.39
2023-05-05T10:51:03.778Z,14.46
2023-05-05T10:52:03.914Z,14.36
2023-05-05T10:53:04.849Z,14.42
2023-05-05T10:54:04.865Z,14.54
2023-05-05T10:55:04.934Z,14.45
2023-05-05T10:56:05.225Z,14.48
2023-05-05T10:57:06.695Z,14.56
2023-05-05T10:58:07.490Z,14.6
2023-05-05T10:59:08.433Z,14.43
2023-05-05T11:00:08.976Z,14.58
2023-05-05T11:01:08.957Z,14.39
2023-05-05T11:02:09.454Z,14.4
2023-05-05T11:03:10.315Z,14.42
2023-05-05T11:04:10.725Z,14.41
2023-05-05T11:05:10.892Z,14.37
2023-05-05T11:06:11.061Z,14.4
2023-05-05T11:07:14.960Z,14.5
2023-05-05T11:08:12.531Z,14.34
2023-05-05T11:09:12.614Z,14.26
2023-05-05T11:10:12.995Z,14.17
2023-05-05T11:11:14.041Z,14.14
2023-05-05T11:12:14.218Z,14.21
2023-05-05T11:13:14.212Z,14.4
2023-05-05T11:14:14.942Z,14.32
2023-05-05T11:15:14.772Z,14.51
2023-05-05T11:16:15.763Z,14.47
2023-05-05T11:17:16.085Z,14.45
2023-05-05T11:18:16.121Z,14.72
2023-05-05T11:19:16.337Z,14.85
2023-05-05T11:20:16.825Z,14.83
2023-05-05T11:21:17.810Z,14.67
2023-05-05T11:22:17.537Z,14.51
2023-05-05T11:23:17.516Z,14.52
2023-05-05T11:24:17.743Z,14.67
2023-05-05T11:25:18.192Z,14.75
2023-05-05T11:26:18.720Z,14.78
2023-05-05T11:27:18.956Z,14.65
2023-05-05T11:28:19.359Z,14.56
2023-05-05T11:29:19.826Z,14.46
2023-05-05T11:30:20.170Z,14.42
2023-05-05T11:31:20.962Z,14.21
2023-05-05T11:32:21.013Z,14.11
2023-05-05T11:33:21.291Z,14.21
2023-05-05T11:34:22.077Z,14.16
2023-05-05T11:35:22.410Z,14.26
2023-05-05T11:36:23.477Z,14.24
2023-05-05T11:37:24.089Z,14.29
2023-05-05T11:38:24.226Z,14.3
2023-05-05T11:39:24.494Z,14.47
2023-05-05T11:40:25.489Z,14.3
2023-05-05T11:41:25.919Z,14.25
2023-05-05T11:42:26.691Z,14.28
2023-05-05T11:43:27.157Z,14.39
2023-05-05T11:44:27.799Z,14.28
2023-05-05T11:45:28.715Z,14.27
2023-05-05T11:46:29.308Z,14.21
2023-05-05T11:47:29.348Z,14.36
2023-05-05T11:48:29.945Z,14.32
2023-05-05T11:49:30.402Z,14.37
2023-05-05T11:50:31.265Z,14.27
2023-05-05T11:51:32.919Z,14.14
2023-05-05T11:52:33.516Z,14.14
2023-05-05T11:53:34.366Z,14.12
2023-05-05T11:54:35.356Z,14.03
2023-05-05T11:55:36.249Z,14.02
2023-05-05T11:56:37.267Z,14.06
2023-05-05T11:57:37.436Z,13.95
2023-05-05T11:58:37.526Z,13.95
2023-05-05T11:59:37.690Z,14.09
2023-05-05T12:00:37.979Z,14.06
2023-05-05T12:01:39.047Z,14.16
2023-05-05T12:02:40.581Z,14.18
2023-05-05T12:03:41.220Z,14.06
2023-05-05T12:04:41.238Z,14.18
2023-05-05T12:05:42.111Z,14.04
2023-05-05T12:06:42.292Z,14.11
2023-05-05T12:07:42.912Z,14.16
2023-05-05T12:08:43.069Z,14.21
2023-05-05T12:09:43.309Z,14.12
2023-05-05T12:10:43.493Z,14.05
2023-05-05T12:11:43.595Z,14.08
2023-05-05T12:12:43.855Z,14.09
2023-05-05T12:13:43.964Z,14.19
2023-05-05T12:14:44.272Z,14.24
2023-05-05T12:15:44.416Z,14.46
2023-05-05T12:16:45.029Z,14.26
2023-05-05T12:17:45.627Z,14.3
2023-05-05T12:18:45.739Z,14.19
2023-05-05T12:19:46.581Z,14
2023-05-05T12:20:47.112Z,13.98
2023-05-05T12:21:47.890Z,13.94
2023-05-05T12:22:48.387Z,13.8
2023-05-05T12:23:49.491Z,13.89
2023-05-05T12:24:50.249Z,13.88
2023-05-05T12:25:51.120Z,14.04
2023-05-05T12:26:52.322Z,14
2023-05-05T12:27:53.402Z,13.93
2023-05-05T12:28:52.883Z,14.08
2023-05-05T12:29:53.732Z,14.1
2023-05-05T12:30:55.078Z,14.24
2023-05-05T12:31:54.999Z,14.13
2023-05-05T12:32:55.486Z,14.26
2023-05-05T12:33:55.515Z,14.18
2023-05-05T12:34:55.949Z,14.24
2023-05-05T12:35:56.085Z,14.21
2023-05-05T12:36:56.468Z,14.11
2023-05-05T12:37:56.850Z,14.14
2023-05-05T12:38:57.206Z,14.18
2023-05-05T12:39:57.565Z,14.14
2023-05-05T12:40:57.945Z,14.06
2023-05-05T12:41:58.053Z,14.21
2023-05-05T12:42:59.146Z,14.19
2023-05-05T12:43:59.286Z,14.01
2023-05-05T12:44:59.621Z,14.15
2023-05-05T12:46:00.643Z,14.07
2023-05-05T12:47:00.998Z,14.02
2023-05-05T12:48:01.616Z,13.94
2023-05-05T12:49:02.386Z,13.79
2023-05-05T12:50:02.760Z,14.01
2023-05-05T12:51:03.482Z,13.94
2023-05-05T12:52:03.954Z,13.95
2023-05-05T12:53:04.138Z,14.1
2023-05-05T12:54:05.171Z,14.26
2023-05-05T12:55:05.603Z,14.14
2023-05-05T12:56:05.227Z,14.06
2023-05-05T12:57:06.032Z,13.99
2023-05-05T12:58:06.672Z,13.91
2023-05-05T12:59:07.080Z,13.89
2023-05-05T13:00:07.511Z,13.98
2023-05-05T13:01:07.960Z,13.98
2023-05-05T13:02:08.952Z,13.98
2023-05-05T13:03:09.197Z,13.96
2023-05-05T13:04:09.379Z,13.98
2023-05-05T13:05:09.855Z,13.98
2023-05-05T13:06:10.058Z,13.87
2023-05-05T13:07:10.437Z,13.82
2023-05-05T13:08:10.950Z,13.96
2023-05-05T13:09:11.582Z,13.97
2023-05-05T13:10:12.547Z,13.79
2023-05-05T13:11:13.230Z,13.9
2023-05-05T13:12:13.655Z,13.93
2023-05-05T13:13:14.513Z,13.91
2023-05-05T13:14:14.916Z,13.84
2023-05-05T13:15:15.908Z,13.88
2023-05-05T13:16:16.970Z,13.79